Time;durP1;ratioP1;P1;durP2;ratioP2;P2;SDS_P1;SDS_P2;PMS_P1;PMS_P2;Temp;Humidity;BMP_temperature;BMP_pressure;BME280_temperature;BME280_humidity;BME280_pressure;Samples;Min_cycle;Max_cycle;Signal;HPM_P1;HPM_P2
2023/09/27 00:01:57;;;;;;;21.65;10.52;;;;;;;14.27;100.00;102030.31;6121107;19;20013;-74
2023/09/27 00:04:05;;;;;;;18.52;10.30;;;;;;;14.26;100.00;102015.38;6117630;19;20007;-74
2023/09/27 00:06:11;;;;;;;17.33;9.57;;;;;;;14.20;100.00;102023.53;6116187;19;20018;-74
2023/09/27 00:08:16;;;;;;;17.52;9.02;;;;;;;14.19;100.00;102019.16;6109871;19;20011;-74
2023/09/27 00:10:22;;;;;;;20.10;8.95;;;;;;;14.15;100.00;102015.75;6100293;19;20003;-74
2023/09/27 00:12:28;;;;;;;22.75;8.63;;;;;;;14.12;100.00;102015.88;6103698;19;20017;-76
2023/09/27 00:14:36;;;;;;;15.52;7.78;;;;;;;14.10;100.00;102016.84;6105449;19;20022;-74
2023/09/27 00:16:47;;;;;;;18.25;8.10;;;;;;;14.09;100.00;102025.72;6103658;19;20557;-75
2023/09/27 00:18:52;;;;;;;16.02;8.73;;;;;;;14.07;100.00;102025.75;6097503;19;20015;-74
2023/09/27 00:21:03;;;;;;;20.45;9.38;;;;;;;14.04;100.00;102023.22;6102842;19;20010;-74
2023/09/27 00:23:08;;;;;;;16.33;7.80;;;;;;;13.98;100.00;102023.44;6100444;19;20062;-74
2023/09/27 00:25:14;;;;;;;17.35;7.60;;;;;;;13.96;100.00;102020.00;6101069;19;20014;-74
2023/09/27 00:27:19;;;;;;;16.42;7.88;;;;;;;13.97;100.00;102021.72;6084897;19;20014;-74
2023/09/27 00:29:25;;;;;;;15.07;7.45;;;;;;;13.94;100.00;102020.03;6103504;19;20039;-74
2023/09/27 00:31:31;;;;;;;13.73;9.05;;;;;;;13.95;100.00;102019.13;6105238;19;20010;-74
2023/09/27 00:33:36;;;;;;;14.18;8.65;;;;;;;13.90;100.00;102009.63;6097918;19;20018;-75
2023/09/27 00:35:43;;;;;;;12.10;6.68;;;;;;;13.91;100.00;102021.94;6094495;19;20045;-74
2023/09/27 00:37:54;;;;;;;15.93;8.32;;;;;;;13.92;100.00;102028.94;6100761;19;20015;-74
2023/09/27 00:39:58;;;;;;;14.05;8.02;;;;;;;13.91;100.00;102021.94;6103523;19;20113;-75
2023/09/27 00:42:03;;;;;;;16.58;7.97;;;;;;;13.87;100.00;102015.88;6098696;19;20011;-74
2023/09/27 00:44:11;;;;;;;15.70;8.00;;;;;;;13.85;100.00;102012.47;6101757;19;20371;-74
2023/09/27 00:46:22;;;;;;;15.10;8.57;;;;;;;13.87;100.00;101999.19;6104491;19;20467;-78
2023/09/27 00:48:27;;;;;;;13.80;7.00;;;;;;;13.83;100.00;102006.34;6103722;19;20065;-76
2023/09/27 00:50:34;;;;;;;11.77;6.78;;;;;;;13.79;100.00;102010.88;6098939;19;20021;-75
2023/09/27 00:52:41;;;;;;;13.77;7.82;;;;;;;13.74;100.00;102007.53;6101882;19;20377;-74
2023/09/27 00:54:49;;;;;;;15.82;7.57;;;;;;;13.72;100.00;102017.31;6104580;19;20002;-74
2023/09/27 00:56:58;;;;;;;13.10;6.30;;;;;;;13.67;100.00;102003.41;6104188;19;20472;-74
2023/09/27 00:59:04;;;;;;;14.30;8.45;;;;;;;13.64;100.00;102005.25;6102948;19;20061;-74
2023/09/27 01:01:09;;;;;;;12.20;6.88;;;;;;;13.60;100.00;102002.72;6071112;19;20031;-74
2023/09/27 01:03:16;;;;;;;11.10;6.90;;;;;;;13.62;100.00;102015.91;6099597;19;20007;-74
2023/09/27 01:05:21;;;;;;;10.40;6.80;;;;;;;13.60;100.00;102015.06;6101750;19;20014;-76
2023/09/27 01:07:27;;;;;;;20.95;7.45;;;;;;;13.56;100.00;102006.41;6102974;19;20050;-75
2023/09/27 01:09:34;;;;;;;15.50;7.55;;;;;;;13.53;100.00;102013.56;6102479;19;20007;-75
2023/09/27 01:11:46;;;;;;;11.85;7.05;;;;;;;13.51;100.00;102012.78;6094302;19;20045;-74
2023/09/27 01:13:53;;;;;;;12.93;7.13;;;;;;;13.48;100.00;102016.38;6104037;19;20587;-74
2023/09/27 01:15:58;;;;;;;15.35;7.53;;;;;;;13.50;100.00;102014.53;6102872;19;20013;-75
2023/09/27 01:18:04;;;;;;;14.77;7.40;;;;;;;13.45;100.00;102015.59;6100176;19;20010;-74
2023/09/27 01:20:12;;;;;;;16.25;8.52;;;;;;;13.49;100.00;102019.88;6104429;19;20014;-74
2023/09/27 01:22:19;;;;;;;11.65;7.15;;;;;;;13.46;100.00;102015.56;6103273;19;20038;-74
2023/09/27 01:24:32;;;;;;;14.73;6.88;;;;;;;13.41;100.00;102012.19;6103654;19;20011;-75
2023/09/27 01:26:44;;;;;;;12.90;6.95;;;;;;;13.38;100.00;102007.88;6103489;19;20025;-75
2023/09/27 01:28:52;;;;;;;13.90;7.18;;;;;;;13.37;100.00;102021.97;6106932;19;20018;-75
2023/09/27 01:30:57;;;;;;;12.70;6.57;;;;;;;13.33;100.00;102014.25;6107734;19;20045;-74
2023/09/27 01:33:08;;;;;;;14.73;7.18;;;;;;;13.34;100.00;102005.41;6100537;19;20073;-74
2023/09/27 01:35:15;;;;;;;11.27;6.20;;;;;;;13.34;100.00;102014.16;6082448;19;20111;-75
2023/09/27 01:37:20;;;;;;;10.85;6.45;;;;;;;13.36;100.00;102019.41;6105835;19;20834;-74
2023/09/27 01:39:25;;;;;;;15.63;7.57;;;;;;;13.40;100.00;102021.03;6108481;19;20049;-75
2023/09/27 01:41:33;;;;;;;13.18;7.55;;;;;;;13.36;100.00;102020.28;6103729;19;20034;-73
2023/09/27 01:43:49;;;;;;;13.32;7.70;;;;;;;13.39;100.00;102024.59;6103306;19;20022;-75
2023/09/27 01:45:54;;;;;;;15.48;7.88;;;;;;;13.40;100.00;102031.59;6108708;19;20015;-74
2023/09/27 01:48:00;;;;;;;14.32;7.85;;;;;;;13.36;100.00;102022.06;6114572;19;20045;-75
2023/09/27 01:50:06;;;;;;;14.43;7.32;;;;;;;13.33;100.00;102022.16;6113288;19;20006;-74
2023/09/27 01:52:11;;;;;;;13.88;7.70;;;;;;;13.36;100.00;102024.69;6113251;19;20013;-74
2023/09/27 01:54:15;;;;;;;15.60;8.48;;;;;;;13.36;100.00;102030.84;6111866;19;20490;-75
2023/09/27 01:56:19;;;;;;;12.45;7.03;;;;;;;13.36;100.00;102035.25;6112118;19;20389;-74
2023/09/27 01:58:26;;;;;;;12.65;7.60;;;;;;;13.30;100.00;102022.28;6110724;19;20023;-75
2023/09/27 02:00:32;;;;;;;14.15;7.88;;;;;;;13.31;100.00;102024.84;6102579;19;20006;-74
2023/09/27 02:02:37;;;;;;;15.38;7.80;;;;;;;13.26;100.00;102028.50;6111404;19;20467;-74
2023/09/27 02:04:45;;;;;;;12.95;7.93;;;;;;;13.19;100.00;102027.84;6109746;19;20070;-74
2023/09/27 02:06:52;;;;;;;13.30;6.93;;;;;;;13.21;100.00;102035.72;6106524;19;20003;-76
2023/09/27 02:08:57;;;;;;;16.90;7.35;;;;;;;13.20;100.00;102039.28;6107458;19;20054;-74
2023/09/27 02:11:02;;;;;;;12.82;7.45;;;;;;;13.13;100.00;102034.19;6105710;19;20006;-74
2023/09/27 02:13:07;;;;;;;12.88;6.28;;;;;;;13.11;100.00;102030.75;6095250;19;20006;-74
2023/09/27 02:15:19;;;;;;;13.13;7.45;;;;;;;13.10;100.00;102022.88;6085739;19;20023;-74
2023/09/27 02:17:23;;;;;;;17.23;9.02;;;;;;;13.12;100.00;102019.28;6105852;19;21561;-75
2023/09/27 02:19:31;;;;;;;12.93;7.47;;;;;;;13.09;100.00;102032.56;6106739;19;20017;-75
2023/09/27 02:21:36;;;;;;;14.07;6.95;;;;;;;13.10;100.00;102029.00;6106949;19;20050;-75
2023/09/27 02:23:41;;;;;;;12.32;7.25;;;;;;;13.12;100.00;102028.97;6108025;19;20025;-74
2023/09/27 02:25:44;;;;;;;12.35;7.28;;;;;;;13.09;100.00;102027.28;6107491;19;20017;-74
2023/09/27 02:27:50;;;;;;;13.73;7.80;;;;;;;13.04;100.00;102023.94;6105038;19;20383;-77
2023/09/27 02:29:57;;;;;;;14.90;7.78;;;;;;;13.04;100.00;102025.72;6107073;19;20041;-76
2023/09/27 02:32:05;;;;;;;12.93;7.07;;;;;;;13.03;100.00;102011.63;6105983;19;20422;-76
2023/09/27 02:34:10;;;;;;;14.02;7.68;;;;;;;12.99;100.00;102011.81;6100527;19;20013;-76
2023/09/27 02:36:15;;;;;;;13.90;7.68;;;;;;;12.99;100.00;102017.09;6109416;19;20010;-75
2023/09/27 02:38:23;;;;;;;13.43;7.10;;;;;;;12.94;100.00;102019.84;6111535;19;20010;-74
2023/09/27 02:40:40;;;;;;;13.93;7.72;;;;;;;12.93;100.00;102026.91;6111743;19;20011;-76
2023/09/27 02:42:50;;;;;;;11.63;7.03;;;;;;;12.90;100.00;102019.09;6087501;19;20006;-74
2023/09/27 02:44:56;;;;;;;13.38;7.70;;;;;;;12.88;100.00;102027.97;6107874;19;20372;-74
2023/09/27 02:47:11;;;;;;;15.45;8.85;;;;;;;12.92;100.00;102026.94;6115576;19;20014;-74
2023/09/27 02:49:20;;;;;;;15.40;8.50;;;;;;;12.86;100.00;102022.72;6117741;19;20006;-74
2023/09/27 02:51:25;;;;;;;13.52;8.15;;;;;;;12.84;100.00;102021.06;6120295;19;20030;-74
2023/09/27 02:53:29;;;;;;;15.85;7.55;;;;;;;12.83;100.00;102025.47;6121475;19;20038;-75
2023/09/27 02:55:37;;;;;;;12.65;7.25;;;;;;;12.84;100.00;102032.47;6122019;19;20043;-75
2023/09/27 02:57:42;;;;;;;13.93;7.57;;;;;;;12.84;100.00;102039.50;6126110;19;20010;-75
2023/09/27 02:59:48;;;;;;;14.10;7.88;;;;;;;12.84;100.00;102052.72;6122871;19;20038;-75
2023/09/27 03:01:53;;;;;;;12.70;8.25;;;;;;;12.89;100.00;102043.72;6110066;19;20058;-75
2023/09/27 03:04:03;;;;;;;13.10;8.00;;;;;;;12.80;100.00;102038.75;6112984;19;20025;-75
2023/09/27 03:06:16;;;;;;;14.02;8.13;;;;;;;12.83;100.00;102048.34;6112782;19;20013;-75
2023/09/27 03:08:21;;;;;;;11.90;7.53;;;;;;;12.83;100.00;102051.00;6109442;19;20604;-75
2023/09/27 03:10:29;;;;;;;13.32;7.50;;;;;;;12.84;100.00;102052.72;6107832;19;20621;-75
2023/09/27 03:12:34;;;;;;;20.42;10.32;;;;;;;12.88;100.00;102049.94;6076157;19;20090;-76
2023/09/27 03:14:41;;;;;;;16.45;8.55;;;;;;;12.87;100.00;102042.06;6096456;19;20018;-75
2023/09/27 03:16:45;;;;;;;17.40;9.50;;;;;;;12.90;100.00;102048.13;6103456;19;20030;-74
2023/09/27 03:18:50;;;;;;;17.88;9.98;;;;;;;12.93;100.00;102047.16;6103268;19;20078;-75
2023/09/27 03:20:57;;;;;;;17.30;9.40;;;;;;;12.94;100.00;102048.88;6102854;19;20016;-74
2023/09/27 03:23:04;;;;;;;16.13;9.27;;;;;;;12.91;100.00;102054.25;6106614;19;20034;-75
2023/09/27 03:25:10;;;;;;;17.38;8.30;;;;;;;12.89;100.00;102054.28;6102718;19;20002;-74
2023/09/27 03:27:16;;;;;;;14.90;8.35;;;;;;;12.90;100.00;102048.13;6099721;19;20002;-75
2023/09/27 03:29:20;;;;;;;14.95;8.50;;;;;;;12.91;100.00;102043.69;6105789;19;20015;-75
2023/09/27 03:31:23;;;;;;;15.23;8.98;;;;;;;12.93;100.00;102041.88;6107270;19;20027;-74
2023/09/27 03:33:28;;;;;;;13.50;7.47;;;;;;;12.89;100.00;102051.66;6097280;19;21391;-74
2023/09/27 03:35:34;;;;;;;15.48;8.98;;;;;;;12.91;100.00;102043.69;6106146;19;20546;-76
2023/09/27 03:37:44;;;;;;;14.15;7.90;;;;;;;12.85;100.00;102051.78;6105758;19;20497;-75
2023/09/27 03:39:52;;;;;;;19.45;8.77;;;;;;;12.83;100.00;102057.13;6102947;19;20006;-74
2023/09/27 03:41:57;;;;;;;16.88;8.45;;;;;;;12.80;100.00;102065.13;6085121;19;20014;-74
2023/09/27 03:44:02;;;;;;;16.25;8.90;;;;;;;12.78;100.00;102058.19;6106263;19;20018;-76
2023/09/27 03:46:07;;;;;;;18.35;10.80;;;;;;;12.77;100.00;102054.69;6100213;19;20789;-74
2023/09/27 03:48:13;;;;;;;15.32;8.95;;;;;;;12.73;100.00;102053.91;6106637;19;20030;-74
2023/09/27 03:50:18;;;;;;;15.68;9.02;;;;;;;12.72;100.00;102052.19;6105171;19;20015;-75
2023/09/27 03:52:25;;;;;;;18.38;8.30;;;;;;;12.73;100.00;102042.47;6104207;19;20474;-75
2023/09/27 03:54:35;;;;;;;13.65;7.28;;;;;;;12.74;100.00;102042.44;6107265;19;20006;-76
2023/09/27 03:56:41;;;;;;;18.98;8.55;;;;;;;12.78;100.00;102039.72;6106519;19;20010;-76
2023/09/27 03:58:50;;;;;;;15.20;8.82;;;;;;;12.76;100.00;102037.09;6102937;19;20010;-74
2023/09/27 04:00:58;;;;;;;16.05;8.73;;;;;;;12.76;100.00;102034.47;6107078;19;20086;-74
2023/09/27 04:03:03;;;;;;;15.18;8.48;;;;;;;12.79;100.00;102038.78;6097634;19;20013;-74
2023/09/27 04:05:10;;;;;;;14.85;8.23;;;;;;;12.77;100.00;102036.22;6105487;19;20013;-74
2023/09/27 04:07:15;;;;;;;14.80;8.77;;;;;;;12.76;100.00;102038.88;6105410;19;20042;-75
2023/09/27 04:09:20;;;;;;;15.85;8.50;;;;;;;12.77;100.00;102043.25;6102971;19;20091;-75
2023/09/27 04:11:29;;;;;;;14.10;8.43;;;;;;;12.77;100.00;102040.59;6106391;19;20091;-74
2023/09/27 04:13:35;;;;;;;17.50;9.48;;;;;;;12.80;100.00;102032.63;6105194;19;20014;-75
2023/09/27 04:15:42;;;;;;;19.20;9.50;;;;;;;12.91;100.00;102017.31;6098625;19;20086;-74
2023/09/27 04:17:50;;;;;;;17.10;9.55;;;;;;;12.91;100.00;102020.81;6104216;19;20025;-75
2023/09/27 04:19:57;;;;;;;17.95;9.15;;;;;;;12.93;100.00;102037.47;6105007;19;20443;-74
2023/09/27 04:22:02;;;;;;;17.40;10.45;;;;;;;12.88;100.00;102034.09;6103650;19;20013;-74
2023/09/27 04:24:10;;;;;;;16.00;9.88;;;;;;;12.82;100.00;102028.13;6105488;19;19999;-76
2023/09/27 04:26:15;;;;;;;16.92;8.68;;;;;;;12.82;100.00;102020.22;6104098;19;20027;-75
2023/09/27 04:28:24;;;;;;;14.30;8.80;;;;;;;12.83;100.00;102025.47;6102707;19;20237;-75
2023/09/27 04:30:29;;;;;;;20.25;8.95;;;;;;;12.82;100.00;102028.13;6103400;19;20408;-76
2023/09/27 04:32:36;;;;;;;15.15;9.35;;;;;;;12.80;100.00;102015.03;6105865;19;20007;-76
2023/09/27 04:34:44;;;;;;;14.95;8.85;;;;;;;12.82;100.00;102014.94;6085279;19;20003;-74
2023/09/27 04:36:50;;;;;;;17.85;9.95;;;;;;;12.79;100.00;102012.41;6103460;19;20042;-74
2023/09/27 04:38:55;;;;;;;15.60;9.55;;;;;;;12.73;100.00;102013.47;6108474;19;20003;-76
2023/09/27 04:41:01;;;;;;;15.82;8.75;;;;;;;12.71;100.00;102024.06;6110271;19;20015;-77
2023/09/27 04:43:04;;;;;;;17.48;9.73;;;;;;;12.67;100.00;102018.94;6109039;19;20027;-76
2023/09/27 04:45:13;;;;;;;14.38;8.88;;;;;;;12.67;100.00;102026.84;6111275;19;20010;-74
2023/09/27 04:47:18;;;;;;;21.88;10.13;;;;;;;12.70;100.00;102022.34;6099621;19;20046;-75
2023/09/27 04:49:23;;;;;;;20.10;10.05;;;;;;;12.67;100.00;102019.81;6108633;19;20006;-74
2023/09/27 04:51:29;;;;;;;18.08;9.00;;;;;;;12.67;100.00;102006.63;6108357;19;20027;-74
2023/09/27 04:53:37;;;;;;;14.63;9.00;;;;;;;12.74;100.00;102007.28;6103895;19;20014;-75
2023/09/27 04:55:45;;;;;;;19.85;9.32;;;;;;;12.81;100.00;101994.78;6106119;19;20021;-75
2023/09/27 04:57:53;;;;;;;16.58;9.25;;;;;;;12.87;100.00;101999.84;6104845;19;20006;-76
2023/09/27 05:00:01;;;;;;;22.80;10.25;;;;;;;12.86;100.00;102006.03;6103551;19;20482;-74
2023/09/27 05:02:10;;;;;;;20.27;8.80;;;;;;;12.80;100.00;102003.59;6101870;19;20019;-75
2023/09/27 05:04:22;;;;;;;14.98;7.97;;;;;;;12.74;100.00;102002.00;6075057;19;20002;-75
2023/09/27 05:06:28;;;;;;;16.38;8.80;;;;;;;12.71;100.00;101991.53;6103148;19;20014;-75
2023/09/27 05:08:36;;;;;;;17.27;9.15;;;;;;;12.66;100.00;101994.31;6106469;19;20039;-75
2023/09/27 05:10:46;;;;;;;14.95;8.13;;;;;;;12.69;100.00;101999.53;6104345;19;20014;-74
2023/09/27 05:12:48;;;;;;;16.48;9.55;;;;;;;12.78;100.00;102010.69;6105248;19;20092;-75
2023/09/27 05:14:56;;;;;;;16.48;8.35;;;;;;;12.74;100.00;102005.53;6104344;19;20042;-75
2023/09/27 05:17:01;;;;;;;18.17;8.63;;;;;;;12.77;100.00;102007.22;6097026;19;20003;-75
2023/09/27 05:19:09;;;;;;;14.88;8.55;;;;;;;12.77;100.00;102009.84;6082460;19;20428;-74
2023/09/27 05:21:14;;;;;;;16.35;8.95;;;;;;;12.76;100.00;102001.97;6102616;19;20028;-74
2023/09/27 05:23:18;;;;;;;16.38;8.80;;;;;;;12.76;100.00;102007.25;6082263;19;20510;-73
2023/09/27 05:25:24;;;;;;;14.27;8.88;;;;;;;12.70;100.00;102003.88;6100345;19;20025;-74
2023/09/27 05:27:26;;;;;;;21.15;9.45;;;;;;;12.72;100.00;101999.44;6103397;19;20499;-74
2023/09/27 05:29:31;;;;;;;14.65;8.18;;;;;;;12.72;100.00;102002.06;6103862;19;20017;-74
2023/09/27 05:31:36;;;;;;;15.30;8.43;;;;;;;12.69;100.00;101993.34;6104281;19;20474;-74
2023/09/27 05:33:42;;;;;;;18.70;9.93;;;;;;;12.72;100.00;101983.59;6102725;19;20015;-74
2023/09/27 05:35:52;;;;;;;17.17;9.52;;;;;;;12.74;100.00;101973.88;6103173;19;20036;-74
2023/09/27 05:38:00;;;;;;;15.63;9.18;;;;;;;12.79;100.00;101984.25;6099659;19;20022;-74
2023/09/27 05:40:04;;;;;;;17.48;9.20;;;;;;;12.80;100.00;101982.50;6099251;19;20614;-74
2023/09/27 05:42:11;;;;;;;17.42;8.40;;;;;;;12.77;100.00;101993.13;6100787;19;20014;-73
2023/09/27 05:44:16;;;;;;;17.92;9.48;;;;;;;12.78;100.00;102011.56;6103056;19;20409;-74
2023/09/27 05:46:24;;;;;;;17.30;9.25;;;;;;;12.80;100.00;102011.53;6106448;19;20010;-74
2023/09/27 05:48:33;;;;;;;15.70;9.80;;;;;;;12.79;100.00;102001.88;6095507;19;20019;-74
2023/09/27 05:50:40;;;;;;;18.30;10.68;;;;;;;12.81;100.00;102000.91;6107048;19;20016;-74
2023/09/27 05:52:50;;;;;;;20.05;9.57;;;;;;;12.87;100.00;101999.84;6106826;19;20037;-74
2023/09/27 05:54:57;;;;;;;18.15;10.15;;;;;;;12.93;100.00;102000.53;6111792;19;20040;-74
2023/09/27 05:57:02;;;;;;;22.02;10.25;;;;;;;12.92;100.00;102000.56;6093267;19;20010;-74
2023/09/27 05:59:11;;;;;;;19.38;9.75;;;;;;;13.00;100.00;101993.25;6115404;19;20058;-74
2023/09/27 06:01:22;;;;;;;20.90;10.73;;;;;;;13.09;100.00;101989.50;6117030;19;20006;-74
2023/09/27 06:03:29;;;;;;;17.63;10.10;;;;;;;13.10;100.00;101989.41;6114480;19;20589;-75
2023/09/27 06:05:35;;;;;;;19.75;11.00;;;;;;;13.14;100.00;101991.06;6111812;19;20011;-75
2023/09/27 06:07:44;;;;;;;19.92;10.70;;;;;;;13.23;100.00;101991.66;6104696;19;20110;-74
2023/09/27 06:09:54;;;;;;;20.48;12.13;;;;;;;13.29;100.00;101994.13;6105305;19;20260;-75
2023/09/27 06:11:59;;;;;;;23.90;12.68;;;;;;;13.36;100.00;101993.00;6105271;19;20019;-74
2023/09/27 06:14:02;;;;;;;22.42;10.73;;;;;;;13.45;100.00;101986.53;6103392;19;20038;-75
2023/09/27 06:16:16;;;;;;;20.52;10.88;;;;;;;13.53;100.00;101995.97;6106595;19;20306;-76
2023/09/27 06:18:22;;;;;;;26.63;11.45;;;;;;;13.58;100.00;101993.13;6097188;19;20499;-74
2023/09/27 06:20:30;;;;;;;19.55;11.73;;;;;;;13.64;100.00;101997.34;6082690;19;20384;-74
2023/09/27 06:22:34;;;;;;;21.85;12.90;;;;;;;13.67;100.00;101995.47;6103295;19;20030;-74
2023/09/27 06:24:40;;;;;;;24.10;13.07;;;;;;;13.74;100.00;101993.47;6091107;19;20018;-74
2023/09/27 06:26:48;;;;;;;23.95;12.45;;;;;;;13.81;100.00;101984.41;6104540;19;20430;-73
2023/09/27 06:28:53;;;;;;;24.48;13.60;;;;;;;13.86;100.00;101965.75;6103770;19;20018;-74
2023/09/27 06:31:00;;;;;;;28.50;13.10;;;;;;;13.93;100.00;101948.75;6104062;19;20014;-74
2023/09/27 06:33:06;;;;;;;26.15;13.80;;;;;;;13.99;100.00;101945.88;6100559;19;20097;-74
2023/09/27 06:35:16;;;;;;;25.38;12.52;;;;;;;14.01;100.00;101968.69;6104617;19;20037;-74
2023/09/27 06:37:26;;;;;;;24.67;13.55;;;;;;;14.07;100.00;101967.59;6086651;19;20114;-75
2023/09/27 06:39:47;;;;;;;28.20;14.15;;;;;;;14.18;100.00;101953.97;6107692;19;20047;-75
2023/09/27 06:42:06;;;;;;;27.50;14.35;;;;;;;14.26;100.00;101960.69;6099798;19;20089;-74
2023/09/27 06:44:13;;;;;;;31.00;15.75;;;;;;;14.35;100.00;101987.69;6105697;19;20698;-74
2023/09/27 06:46:25;;;;;;;31.35;15.90;;;;;;;14.45;100.00;102002.31;6108610;19;20018;-73
2023/09/27 06:48:43;;;;;;;27.05;15.13;;;;;;;14.45;100.00;102000.50;6100722;19;20034;-74
2023/09/27 06:50:53;;;;;;;25.52;15.10;;;;;;;14.50;100.00;102009.13;6105255;19;20135;-74
2023/09/27 06:52:56;;;;;;;30.40;15.35;;;;;;;14.55;100.00;102024.03;6102036;19;20432;-74
2023/09/27 06:55:22;;;;;;;31.60;16.38;;;;;;;14.58;100.00;102032.69;6105384;19;20642;-75
2023/09/27 06:57:31;;;;;;;29.52;15.95;;;;;;;14.61;100.00;102037.00;6099337;19;20065;-74
2023/09/27 06:59:37;;;;;;;31.27;15.27;;;;;;;14.63;100.00;102045.75;6105476;19;20079;-74
2023/09/27 07:01:51;;;;;;;30.30;17.27;;;;;;;14.69;100.00;102049.03;6094192;19;20002;-75
2023/09/27 07:03:58;;;;;;;32.15;15.70;;;;;;;14.75;100.00;102045.28;6094792;19;20579;-74
2023/09/27 07:06:04;;;;;;;35.72;18.73;;;;;;;14.78;100.00;102046.97;6095022;19;20430;-74
2023/09/27 07:08:12;;;;;;;36.83;17.17;;;;;;;14.81;100.00;102062.72;6099073;19;20415;-76
2023/09/27 07:10:17;;;;;;;31.35;16.17;;;;;;;14.87;100.00;102054.53;6099399;19;20026;-73
2023/09/27 07:12:22;;;;;;;28.83;14.27;;;;;;;14.90;100.00;102057.94;6097656;19;20620;-74
2023/09/27 07:14:26;;;;;;;36.25;17.38;;;;;;;14.97;100.00;102052.38;6097873;19;20017;-74
2023/09/27 07:16:33;;;;;;;35.50;17.42;;;;;;;15.05;100.00;102052.94;6102261;19;20014;-74
2023/09/27 07:18:54;;;;;;;32.03;16.20;;;;;;;15.17;100.00;102054.25;6104931;19;20013;-74
2023/09/27 07:21:00;;;;;;;38.25;18.05;;;;;;;15.24;100.00;102056.56;6093344;19;20015;-73
2023/09/27 07:23:07;;;;;;;31.33;16.75;;;;;;;15.36;100.00;102049.91;6096216;19;20495;-74
2023/09/27 07:25:16;;;;;;;33.53;17.92;;;;;;;15.46;100.00;102039.81;6096441;19;20021;-74
2023/09/27 07:27:21;;;;;;;35.00;17.63;;;;;;;15.55;100.00;102039.41;6100568;19;20127;-73
2023/09/27 07:29:30;;;;;;;32.95;15.88;;;;;;;15.66;100.00;102037.16;6107436;19;20058;-73
2023/09/27 07:31:36;;;;;;;28.90;16.50;;;;;;;15.74;100.00;102040.38;6093133;19;20148;-73
2023/09/27 07:33:43;;;;;;;35.22;16.83;;;;;;;15.89;100.00;102048.59;6107753;19;20710;-74
2023/09/27 07:35:52;;;;;;;35.80;17.95;;;;;;;15.99;100.00;102048.13;6101215;19;20013;-74
2023/09/27 07:37:57;;;;;;;37.67;18.73;;;;;;;16.15;100.00;102047.47;6106887;19;20085;-75
2023/09/27 07:40:04;;;;;;;36.63;18.00;;;;;;;16.45;100.00;102054.00;6105904;19;20010;-74
2023/09/27 07:42:13;;;;;;;40.75;18.38;;;;;;;16.51;100.00;102058.19;6104503;19;20094;-74
2023/09/27 07:44:21;;;;;;;41.75;18.73;;;;;;;16.54;100.00;102049.25;6106503;19;20549;-74
2023/09/27 07:46:31;;;;;;;37.28;19.25;;;;;;;16.62;100.00;102047.94;6108469;19;20594;-75
2023/09/27 07:48:39;;;;;;;38.03;19.27;;;;;;;16.80;100.00;102051.56;6106520;19;20090;-75
2023/09/27 07:50:46;;;;;;;35.53;18.13;;;;;;;16.89;100.00;102048.47;6094449;19;20014;-75
2023/09/27 07:52:54;;;;;;;40.08;18.95;;;;;;;16.94;100.00;102050.91;6101064;19;20383;-74
2023/09/27 07:54:59;;;;;;;35.72;18.67;;;;;;;17.15;100.00;102041.03;6101935;19;20124;-76
2023/09/27 07:57:05;;;;;;;32.60;17.73;;;;;;;17.19;100.00;102044.38;6102819;19;20034;-77
2023/09/27 07:59:09;;;;;;;31.33;16.35;;;;;;;17.33;100.00;102045.44;6104531;19;20580;-75
2023/09/27 08:01:20;;;;;;;28.35;15.73;;;;;;;17.44;100.00;102049.34;6102790;19;20941;-78
2023/09/27 08:03:28;;;;;;;34.25;17.75;;;;;;;17.33;100.00;102049.91;6102503;19;20015;-78
2023/09/27 08:05:42;;;;;;;28.33;16.27;;;;;;;17.27;100.00;102056.38;6104408;19;20379;-77
2023/09/27 08:07:50;;;;;;;31.38;16.20;;;;;;;17.22;100.00;102045.13;6094911;19;20007;-76
2023/09/27 08:09:58;;;;;;;27.45;15.02;;;;;;;17.18;100.00;102037.38;6096764;19;20062;-75
2023/09/27 08:12:27;;;;;;;30.90;15.57;;;;;;;17.12;100.00;102041.19;6103269;19;20010;-77
2023/09/27 08:14:32;;;;;;;27.63;15.75;;;;;;;17.13;100.00;102050.88;6096795;19;20007;-75
2023/09/27 08:16:45;;;;;;;29.40;15.65;;;;;;;17.09;100.00;102068.75;6100537;19;20057;-76
2023/09/27 08:18:56;;;;;;;25.38;14.75;;;;;;;17.12;100.00;102065.09;6101216;19;20003;-76
2023/09/27 08:21:04;;;;;;;25.23;15.23;;;;;;;17.16;100.00;102061.34;6094860;19;19998;-75
2023/09/27 08:23:11;;;;;;;33.30;17.27;;;;;;;17.13;100.00;102056.19;6098937;19;20023;-76
2023/09/27 08:25:14;;;;;;;27.40;15.02;;;;;;;17.19;100.00;102047.91;6097634;19;20018;-77
2023/09/27 08:27:28;;;;;;;29.38;14.88;;;;;;;17.24;100.00;102043.22;6099059;19;20034;-77
2023/09/27 08:29:34;;;;;;;27.05;14.40;;;;;;;17.25;100.00;102033.47;6103397;19;20438;-78
2023/09/27 08:31:41;;;;;;;28.95;16.25;;;;;;;17.28;100.00;102028.00;6097052;19;20053;-78
2023/09/27 08:33:52;;;;;;;28.83;14.30;;;;;;;17.37;100.00;102022.22;6104438;19;20463;-78
2023/09/27 08:36:01;;;;;;;34.22;15.88;;;;;;;17.34;100.00;102025.03;6104125;19;20010;-78
2023/09/27 08:38:08;;;;;;;31.75;14.90;;;;;;;17.28;100.00;102020.03;6104182;19;20007;-78
2023/09/27 08:40:18;;;;;;;27.60;15.35;;;;;;;17.25;100.00;102039.66;6103331;19;20013;-77
2023/09/27 08:42:23;;;;;;;29.63;15.23;;;;;;;17.23;100.00;102049.47;6097137;19;20458;-77
2023/09/27 08:44:29;;;;;;;27.92;15.02;;;;;;;17.26;100.00;102035.19;6099246;19;20109;-75
2023/09/27 08:46:43;;;;;;;26.80;14.57;;;;;;;17.34;100.00;102035.66;6100255;19;20029;-77
2023/09/27 08:48:55;;;;;;;32.38;15.40;;;;;;;17.42;100.00;102041.44;6091103;19;20113;-77
2023/09/27 08:51:06;;;;;;;31.17;15.77;;;;;;;17.47;100.00;102017.31;6074130;19;21201;-74
2023/09/27 08:53:15;;;;;;;32.25;18.33;;;;;;;17.52;100.00;102024.09;6085433;19;20534;-74
2023/09/27 08:55:23;;;;;;;32.33;16.45;;;;;;;17.55;100.00;102060.31;6093222;19;20007;-76
2023/09/27 08:57:30;;;;;;;30.92;16.00;;;;;;;17.52;100.00;102073.75;6101713;19;20099;-72
2023/09/27 08:59:38;;;;;;;29.23;15.20;;;;;;;17.58;100.00;102052.16;6101514;19;20017;-73
2023/09/27 09:01:47;;;;;;;32.17;15.82;;;;;;;17.71;100.00;102049.75;6094074;19;21411;-74
2023/09/27 09:03:58;;;;;;;32.38;16.10;;;;;;;17.76;100.00;102053.88;6097646;19;20312;-73
2023/09/27 09:06:11;;;;;;;29.42;14.60;;;;;;;17.80;100.00;102040.47;6095368;19;20526;-73
2023/09/27 09:08:20;;;;;;;30.33;16.45;;;;;;;17.80;100.00;102024.50;6106122;19;20366;-75
2023/09/27 09:10:46;;;;;;;29.42;16.15;;;;;;;17.85;100.00;102036.66;6094601;19;20010;-72
2023/09/27 09:12:59;;;;;;;31.02;15.98;;;;;;;17.92;100.00;102048.66;6101262;19;20065;-73
2023/09/27 09:15:06;;;;;;;31.40;15.68;;;;;;;17.95;100.00;102058.28;6103994;19;20393;-73
2023/09/27 09:17:12;;;;;;;29.05;14.15;;;;;;;18.01;100.00;102051.78;6096476;19;20042;-71
2023/09/27 09:19:22;;;;;;;26.23;14.52;;;;;;;17.96;100.00;102046.72;6102402;19;20037;-73
2023/09/27 09:21:57;;;;;;;28.77;14.77;;;;;;;17.98;100.00;102040.38;6103917;19;20037;-73
2023/09/27 09:24:20;;;;;;;32.22;16.33;;;;;;;18.06;100.00;102034.66;6097499;19;20020;-74
2023/09/27 09:26:32;;;;;;;31.33;14.85;;;;;;;18.21;100.00;102014.34;6096723;19;20038;-76
2023/09/27 09:28:36;;;;;;;35.15;16.83;;;;;;;18.23;100.00;102006.28;6077781;19;20289;-75
2023/09/27 09:30:44;;;;;;;28.83;15.90;;;;;;;18.31;100.00;102015.56;6103164;19;20014;-76
2023/09/27 09:32:51;;;;;;;31.42;16.63;;;;;;;18.39;100.00;102025.81;6103729;19;20018;-75
2023/09/27 09:35:00;;;;;;;29.45;15.43;;;;;;;18.38;100.00;102030.28;6082139;19;20010;-74
2023/09/27 09:37:23;;;;;;;26.30;14.48;;;;;;;18.36;100.00;102018.84;6101511;19;20037;-75
2023/09/27 09:39:28;;;;;;;31.50;16.95;;;;;;;18.48;100.00;102016.44;6099947;19;24637;-74